Gloversville, New York
Current Conditions -  °F | °C
As of 2:35 PM on Tuesday 21 Oct 2014 (Local Time) from KNY0 Reporting Station
Overcast Overcast  
Wind Chill:   Ceiling: 800
Heat Index:   Visibility: 10mi
Dew Point:   Wind: 8mph
Humidity: 91%   Direction: 80°E
Pressure: 29.9"   Gusts: NA
Location:  43.06°N, 74.34°W
Report Text: KNY0 211835Z AUTO 08007KT 10SM BKN008 OVC015 10/08 A2990 RMK AO2 T00950081
Loading
Personal Weather Stations






























Interactive Weather Map New forecast layout! Learn more

10-Day Weather Forecast

Advertisements
Track Severe Weather on mobile